sensor_id;sensor_type;location;lat;lon;timestamp;pressure;altitude;pressure_sealevel;temperature;humidity
44765;BME280;30484;52.382;5.260;2023-04-23T00:01:27;100874.31;;;13.08;100.00
44765;BME280;30484;52.382;5.260;2023-04-23T00:04:04;100863.59;;;13.08;100.00
44765;BME280;30484;52.382;5.260;2023-04-23T00:06:37;100860.06;;;13.07;100.00
44765;BME280;30484;52.382;5.260;2023-04-23T00:09:08;100853.56;;;13.11;100.00
44765;BME280;30484;52.382;5.260;2023-04-23T00:11:43;100853.03;;;12.90;100.00
44765;BME280;30484;52.382;5.260;2023-04-23T00:14:16;100854.09;;;13.17;100.00
44765;BME280;30484;52.382;5.260;2023-04-23T00:16:50;100853.31;;;12.86;100.00
44765;BME280;30484;52.382;5.260;2023-04-23T00:19:25;100856.88;;;13.15;100.00
44765;BME280;30484;52.382;5.260;2023-04-23T00:21:58;100851.41;;;12.25;100.00
44765;BME280;30484;52.382;5.260;2023-04-23T00:24:32;100855.06;;;12.40;100.00
44765;BME280;30484;52.382;5.260;2023-04-23T00:27:07;100851.78;;;12.19;100.00
44765;BME280;30484;52.382;5.260;2023-04-23T00:29:40;100849.97;;;12.20;100.00
44765;BME280;30484;52.382;5.260;2023-04-23T00:32:12;100845.19;;;12.57;100.00
44765;BME280;30484;52.382;5.260;2023-04-23T00:34:43;100835.63;;;12.05;100.00
44765;BME280;30484;52.382;5.260;2023-04-23T00:37:16;100845.38;;;12.38;100.00
44765;BME280;30484;52.382;5.260;2023-04-23T00:39:46;100847.06;;;12.55;100.00
44765;BME280;30484;52.382;5.260;2023-04-23T00:42:18;100847.81;;;12.26;100.00
44765;BME280;30484;52.382;5.260;2023-04-23T00:44:48;100843.16;;;12.30;100.00
44765;BME280;30484;52.382;5.260;2023-04-23T00:47:33;100843.25;;;12.29;100.00
44765;BME280;30484;52.382;5.260;2023-04-23T00:50:10;100837.09;;;12.26;100.00
44765;BME280;30484;52.382;5.260;2023-04-23T00:52:43;100830.34;;;12.19;100.00
44765;BME280;30484;52.382;5.260;2023-04-23T00:55:16;100828.28;;;12.24;100.00
44765;BME280;30484;52.382;5.260;2023-04-23T00:57:49;100821.97;;;12.41;100.00
44765;BME280;30484;52.382;5.260;2023-04-23T01:00:25;100831.41;;;12.01;100.00
44765;BME280;30484;52.382;5.260;2023-04-23T01:02:57;100832.44;;;12.14;100.00
44765;BME280;30484;52.382;5.260;2023-04-23T01:05:30;100827.69;;;12.03;100.00
44765;BME280;30484;52.382;5.260;2023-04-23T01:08:03;100819.66;;;12.66;100.00
44765;BME280;30484;52.382;5.260;2023-04-23T01:10:35;100821.38;;;12.20;100.00
44765;BME280;30484;52.382;5.260;2023-04-23T01:13:09;100829.22;;;12.23;100.00
44765;BME280;30484;52.382;5.260;2023-04-23T01:15:42;100817.81;;;12.36;100.00
44765;BME280;30484;52.382;5.260;2023-04-23T01:18:14;100819.13;;;11.97;100.00
44765;BME280;30484;52.382;5.260;2023-04-23T01:20:49;100814.47;;;11.84;100.00
44765;BME280;30484;52.382;5.260;2023-04-23T01:23:20;100818.00;;;11.69;100.00
44765;BME280;30484;52.382;5.260;2023-04-23T01:25:52;100808.69;;;12.08;100.00
44765;BME280;30484;52.382;5.260;2023-04-23T01:28:23;100798.56;;;12.29;100.00
44765;BME280;30484;52.382;5.260;2023-04-23T01:30:56;100792.50;;;12.25;100.00
44765;BME280;30484;52.382;5.260;2023-04-23T01:33:26;100799.69;;;12.55;100.00
44765;BME280;30484;52.382;5.260;2023-04-23T01:35:57;100801.50;;;12.55;100.00
44765;BME280;30484;52.382;5.260;2023-04-23T01:38:31;100802.06;;;12.76;100.00
44765;BME280;30484;52.382;5.260;2023-04-23T01:41:04;100789.41;;;12.78;100.00
44765;BME280;30484;52.382;5.260;2023-04-23T01:43:36;100791.69;;;12.39;100.00
44765;BME280;30484;52.382;5.260;2023-04-23T01:46:06;100792.16;;;12.62;100.00
44765;BME280;30484;52.382;5.260;2023-04-23T01:48:37;100788.38;;;11.88;100.00
44765;BME280;30484;52.382;5.260;2023-04-23T01:51:11;100787.44;;;12.05;100.00
44765;BME280;30484;52.382;5.260;2023-04-23T01:53:48;100780.03;;;12.40;100.00
44765;BME280;30484;52.382;5.260;2023-04-23T01:56:19;100770.00;;;12.89;100.00
44765;BME280;30484;52.382;5.260;2023-04-23T01:58:54;100775.84;;;12.51;100.00
44765;BME280;30484;52.382;5.260;2023-04-23T02:01:42;100782.69;;;12.71;100.00
44765;BME280;30484;52.382;5.260;2023-04-23T02:04:16;100771.03;;;12.86;100.00
44765;BME280;30484;52.382;5.260;2023-04-23T02:06:50;100783.38;;;11.98;100.00
44765;BME280;30484;52.382;5.260;2023-04-23T02:09:26;100779.19;;;12.24;100.00
44765;BME280;30484;52.382;5.260;2023-04-23T02:12:11;100762.81;;;12.14;100.00
44765;BME280;30484;52.382;5.260;2023-04-23T02:14:47;100774.94;;;12.36;100.00
44765;BME280;30484;52.382;5.260;2023-04-23T02:17:20;100756.63;;;11.98;100.00
44765;BME280;30484;52.382;5.260;2023-04-23T02:19:51;100771.06;;;12.25;100.00
44765;BME280;30484;52.382;5.260;2023-04-23T02:22:26;100761.78;;;12.01;100.00
44765;BME280;30484;52.382;5.260;2023-04-23T02:25:05;100764.25;;;12.36;100.00
44765;BME280;30484;52.382;5.260;2023-04-23T02:27:36;100767.31;;;11.82;100.00
44765;BME280;30484;52.382;5.260;2023-04-23T02:30:11;100758.25;;;12.00;100.00
44765;BME280;30484;52.382;5.260;2023-04-23T02:32:44;100758.66;;;11.92;100.00
44765;BME280;30484;52.382;5.260;2023-04-23T02:35:15;100747.69;;;12.13;100.00
44765;BME280;30484;52.382;5.260;2023-04-23T02:37:46;100757.00;;;12.52;100.00
44765;BME280;30484;52.382;5.260;2023-04-23T02:40:21;100755.66;;;12.59;100.00
44765;BME280;30484;52.382;5.260;2023-04-23T02:42:52;100751.16;;;11.99;100.00
44765;BME280;30484;52.382;5.260;2023-04-23T02:45:22;100750.09;;;12.48;100.00
44765;BME280;30484;52.382;5.260;2023-04-23T02:47:57;100738.34;;;12.65;100.00
44765;BME280;30484;52.382;5.260;2023-04-23T02:50:30;100734.28;;;13.03;100.00
44765;BME280;30484;52.382;5.260;2023-04-23T02:53:03;100738.69;;;12.89;100.00
44765;BME280;30484;52.382;5.260;2023-04-23T02:55:37;100737.91;;;13.02;100.00
44765;BME280;30484;52.382;5.260;2023-04-23T02:58:08;100734.09;;;12.77;100.00
44765;BME280;30484;52.382;5.260;2023-04-23T03:00:42;100728.06;;;13.31;100.00
44765;BME280;30484;52.382;5.260;2023-04-23T03:03:12;100728.13;;;13.15;100.00
44765;BME280;30484;52.382;5.260;2023-04-23T03:05:43;100726.59;;;12.68;100.00
44765;BME280;30484;52.382;5.260;2023-04-23T03:08:17;100733.63;;;12.40;100.00
44765;BME280;30484;52.382;5.260;2023-04-23T03:10:50;100738.00;;;12.86;100.00
44765;BME280;30484;52.382;5.260;2023-04-23T03:13:24;100736.13;;;12.43;100.00
44765;BME280;30484;52.382;5.260;2023-04-23T03:15:57;100735.66;;;12.20;100.00
44765;BME280;30484;52.382;5.260;2023-04-23T03:18:34;100736.19;;;12.11;100.00
44765;BME280;30484;52.382;5.260;2023-04-23T03:21:04;100726.28;;;12.58;100.00
44765;BME280;30484;52.382;5.260;2023-04-23T03:23:34;100733.97;;;12.34;100.00
44765;BME280;30484;52.382;5.260;2023-04-23T03:26:09;100729.13;;;12.40;100.00
44765;BME280;30484;52.382;5.260;2023-04-23T03:28:39;100733.31;;;12.75;100.00
44765;BME280;30484;52.382;5.260;2023-04-23T03:31:14;100731.91;;;12.39;100.00
44765;BME280;30484;52.382;5.260;2023-04-23T03:33:46;100729.66;;;12.62;100.00
44765;BME280;30484;52.382;5.260;2023-04-23T03:36:18;100724.06;;;12.36;100.00
44765;BME280;30484;52.382;5.260;2023-04-23T03:38:49;100735.06;;;12.15;100.00
44765;BME280;30484;52.382;5.260;2023-04-23T03:41:21;100732.97;;;12.51;100.00
44765;BME280;30484;52.382;5.260;2023-04-23T03:43:52;100736.38;;;12.83;100.00
44765;BME280;30484;52.382;5.260;2023-04-23T03:46:22;100729.19;;;12.24;100.00
44765;BME280;30484;52.382;5.260;2023-04-23T03:48:52;100727.13;;;12.44;100.00
44765;BME280;30484;52.382;5.260;2023-04-23T03:51:23;100727.16;;;12.28;100.00
44765;BME280;30484;52.382;5.260;2023-04-23T03:53:54;100730.16;;;12.97;100.00
44765;BME280;30484;52.382;5.260;2023-04-23T03:56:27;100724.13;;;12.79;100.00
44765;BME280;30484;52.382;5.260;2023-04-23T03:58:59;100722.44;;;12.48;100.00
44765;BME280;30484;52.382;5.260;2023-04-23T04:01:29;100718.00;;;12.77;100.00
44765;BME280;30484;52.382;5.260;2023-04-23T04:03:59;100717.84;;;12.50;100.00
44765;BME280;30484;52.382;5.260;2023-04-23T04:06:34;100713.03;;;13.14;100.00
44765;BME280;30484;52.382;5.260;2023-04-23T04:09:04;100711.84;;;12.89;100.00
44765;BME280;30484;52.382;5.260;2023-04-23T04:11:36;100707.84;;;12.82;100.00
44765;BME280;30484;52.382;5.260;2023-04-23T04:14:07;100694.34;;;12.98;100.00
44765;BME280;30484;52.382;5.260;2023-04-23T04:16:37;100694.41;;;13.11;100.00
44765;BME280;30484;52.382;5.260;2023-04-23T04:19:07;100697.06;;;12.39;100.00
44765;BME280;30484;52.382;5.260;2023-04-23T04:21:40;100704.41;;;12.80;100.00
44765;BME280;30484;52.382;5.260;2023-04-23T04:24:12;100707.03;;;12.06;100.00
44765;BME280;30484;52.382;5.260;2023-04-23T04:26:49;100711.97;;;12.29;100.00
44765;BME280;30484;52.382;5.260;2023-04-23T04:29:21;100715.97;;;12.21;100.00
44765;BME280;30484;52.382;5.260;2023-04-23T04:31:53;100710.19;;;12.43;100.00
44765;BME280;30484;52.382;5.260;2023-04-23T04:34:23;100710.19;;;12.43;100.00
44765;BME280;30484;52.382;5.260;2023-04-23T04:36:58;100711.56;;;12.80;100.00
44765;BME280;30484;52.382;5.260;2023-04-23T04:39:36;100703.16;;;12.86;100.00
44765;BME280;30484;52.382;5.260;2023-04-23T04:42:08;100708.28;;;12.15;100.00
44765;BME280;30484;52.382;5.260;2023-04-23T04:44:39;100713.16;;;12.39;100.00
44765;BME280;30484;52.382;5.260;2023-04-23T04:47:17;100714.53;;;12.75;100.00
44765;BME280;30484;52.382;5.260;2023-04-23T04:49:49;100718.00;;;12.91;100.00
44765;BME280;30484;52.382;5.260;2023-04-23T04:52:18;100715.13;;;12.66;100.00
44765;BME280;30484;52.382;5.260;2023-04-23T04:54:49;100711.84;;;12.75;100.00
44765;BME280;30484;52.382;5.260;2023-04-23T04:57:21;100711.56;;;12.20;100.00
44765;BME280;30484;52.382;5.260;2023-04-23T04:59:52;100718.63;;;12.52;100.00
44765;BME280;30484;52.382;5.260;2023-04-23T05:02:30;100714.03;;;12.68;100.00
44765;BME280;30484;52.382;5.260;2023-04-23T05:05:05;100718.91;;;13.34;100.00
44765;BME280;30484;52.382;5.260;2023-04-23T05:07:38;100708.41;;;13.16;100.00
44765;BME280;30484;52.382;5.260;2023-04-23T05:10:12;100709.47;;;12.70;100.00
44765;BME280;30484;52.382;5.260;2023-04-23T05:12:44;100709.38;;;13.15;100.00
44765;BME280;30484;52.382;5.260;2023-04-23T05:15:16;100717.06;;;13.07;100.00
44765;BME280;30484;52.382;5.260;2023-04-23T05:17:49;100712.81;;;12.74;100.00
44765;BME280;30484;52.382;5.260;2023-04-23T05:20:21;100704.28;;;13.10;100.00
44765;BME280;30484;52.382;5.260;2023-04-23T05:22:52;100708.72;;;12.83;100.00
44765;BME280;30484;52.382;5.260;2023-04-23T05:25:22;100708.72;;;12.83;100.00
44765;BME280;30484;52.382;5.260;2023-04-23T05:27:57;100704.38;;;13.23;100.00
44765;BME280;30484;52.382;5.260;2023-04-23T05:30:36;100708.72;;;12.97;100.00
44765;BME280;30484;52.382;5.260;2023-04-23T05:33:08;100712.44;;;12.94;100.00
44765;BME280;30484;52.382;5.260;2023-04-23T05:35:39;100706.75;;;13.42;100.00
44765;BME280;30484;52.382;5.260;2023-04-23T05:38:10;100712.47;;;13.65;100.00
44765;BME280;30484;52.382;5.260;2023-04-23T05:40:40;100693.81;;;13.76;100.00
44765;BME280;30484;52.382;5.260;2023-04-23T05:43:20;100702.56;;;13.80;100.00
44765;BME280;30484;52.382;5.260;2023-04-23T05:45:49;100707.25;;;13.49;100.00
44765;BME280;30484;52.382;5.260;2023-04-23T05:48:20;100702.00;;;14.15;100.00
44765;BME280;30484;52.382;5.260;2023-04-23T05:50:51;100706.16;;;14.06;100.00
44765;BME280;30484;52.382;5.260;2023-04-23T05:53:21;100710.72;;;14.19;100.00
44765;BME280;30484;52.382;5.260;2023-04-23T05:55:50;100708.91;;;14.19;100.00
44765;BME280;30484;52.382;5.260;2023-04-23T05:58:22;100718.34;;;13.57;100.00
44765;BME280;30484;52.382;5.260;2023-04-23T06:00:52;100720.94;;;14.26;100.00
44765;BME280;30484;52.382;5.260;2023-04-23T06:03:24;100716.78;;;14.35;100.00
44765;BME280;30484;52.382;5.260;2023-04-23T06:05:58;100713.38;;;14.06;100.00
44765;BME280;30484;52.382;5.260;2023-04-23T06:08:27;100707.19;;;14.18;100.00
44765;BME280;30484;52.382;5.260;2023-04-23T06:11:02;100716.09;;;13.78;100.00
44765;BME280;30484;52.382;5.260;2023-04-23T06:13:34;100708.06;;;14.31;100.00
44765;BME280;30484;52.382;5.260;2023-04-23T06:16:10;100704.72;;;13.88;100.00
44765;BME280;30484;52.382;5.260;2023-04-23T06:18:39;100696.06;;;13.97;100.00
44765;BME280;30484;52.382;5.260;2023-04-23T06:21:08;100682.94;;;14.45;100.00
44765;BME280;30484;52.382;5.260;2023-04-23T06:23:37;100676.38;;;13.96;100.00
44765;BME280;30484;52.382;5.260;2023-04-23T06:26:08;100682.94;;;14.45;100.00
44765;BME280;30484;52.382;5.260;2023-04-23T06:28:40;100677.03;;;14.79;100.00
44765;BME280;30484;52.382;5.260;2023-04-23T06:31:12;100686.41;;;14.86;100.00
44765;BME280;30484;52.382;5.260;2023-04-23T06:33:41;100685.94;;;15.18;100.00
44765;BME280;30484;52.382;5.260;2023-04-23T06:36:12;100680.47;;;15.07;100.00
44765;BME280;30484;52.382;5.260;2023-04-23T06:38:41;100685.41;;;15.13;100.00
44765;BME280;30484;52.382;5.260;2023-04-23T06:41:14;100684.44;;;15.51;100.00
44765;BME280;30484;52.382;5.260;2023-04-23T06:43:46;100684.88;;;14.82;100.00
44765;BME280;30484;52.382;5.260;2023-04-23T06:46:20;100676.63;;;14.72;100.00
44765;BME280;30484;52.382;5.260;2023-04-23T06:48:50;100678.84;;;15.04;100.00
44765;BME280;30484;52.382;5.260;2023-04-23T06:51:20;100680.34;;;15.21;100.00
44765;BME280;30484;52.382;5.260;2023-04-23T06:53:52;100669.34;;;15.85;100.00
44765;BME280;30484;52.382;5.260;2023-04-23T06:56:22;100677.06;;;15.29;100.00
44765;BME280;30484;52.382;5.260;2023-04-23T06:58:55;100679.31;;;15.72;100.00
44765;BME280;30484;52.382;5.260;2023-04-23T07:01:28;100670.44;;;15.83;100.00
44765;BME280;30484;52.382;5.260;2023-04-23T07:03:57;100674.94;;;15.21;100.00
44765;BME280;30484;52.382;5.260;2023-04-23T07:06:31;100671.50;;;16.04;100.00
44765;BME280;30484;52.382;5.260;2023-04-23T07:09:02;100660.84;;;16.03;100.00
44765;BME280;30484;52.382;5.260;2023-04-23T07:11:32;100664.19;;;15.82;100.00
44765;BME280;30484;52.382;5.260;2023-04-23T07:14:06;100659.81;;;15.93;100.00
44765;BME280;30484;52.382;5.260;2023-04-23T07:16:35;100656.31;;;16.39;100.00
44765;BME280;30484;52.382;5.260;2023-04-23T07:19:04;100652.78;;;15.79;100.00
44765;BME280;30484;52.382;5.260;2023-04-23T07:21:35;100643.47;;;16.77;100.00
44765;BME280;30484;52.382;5.260;2023-04-23T07:24:05;100642.84;;;17.07;100.00
44765;BME280;30484;52.382;5.260;2023-04-23T07:26:38;100646.19;;;16.99;100.00
44765;BME280;30484;52.382;5.260;2023-04-23T07:29:09;100650.94;;;17.30;100.00
44765;BME280;30484;52.382;5.260;2023-04-23T07:31:43;100643.84;;;17.17;100.00
44765;BME280;30484;52.382;5.260;2023-04-23T07:34:13;100633.53;;;17.00;100.00
44765;BME280;30484;52.382;5.260;2023-04-23T07:36:43;100644.47;;;17.10;100.00
44765;BME280;30484;52.382;5.260;2023-04-23T07:39:13;100645.09;;;17.57;100.00
44765;BME280;30484;52.382;5.260;2023-04-23T07:41:46;100644.44;;;17.32;100.00
44765;BME280;30484;52.382;5.260;2023-04-23T07:44:17;100639.91;;;17.10;100.00
44765;BME280;30484;52.382;5.260;2023-04-23T07:46:49;100637.34;;;17.64;100.00
44765;BME280;30484;52.382;5.260;2023-04-23T07:49:19;100648.97;;;16.75;100.00
44765;BME280;30484;52.382;5.260;2023-04-23T07:51:50;100635.25;;;17.67;100.00
44765;BME280;30484;52.382;5.260;2023-04-23T07:54:27;100630.56;;;17.69;100.00
44765;BME280;30484;52.382;5.260;2023-04-23T07:57:14;100626.03;;;18.02;100.00
44765;BME280;30484;52.382;5.260;2023-04-23T07:59:46;100622.25;;;17.61;100.00
44765;BME280;30484;52.382;5.260;2023-04-23T08:02:17;100624.69;;;17.64;100.00
44765;BME280;30484;52.382;5.260;2023-04-23T08:04:50;100615.97;;;17.17;100.00
44765;BME280;30484;52.382;5.260;2023-04-23T08:07:21;100626.38;;;18.61;100.00
44765;BME280;30484;52.382;5.260;2023-04-23T08:09:53;100623.13;;;17.94;100.00
44765;BME280;30484;52.382;5.260;2023-04-23T08:12:23;100621.59;;;18.01;100.00
44765;BME280;30484;52.382;5.260;2023-04-23T08:14:54;100615.34;;;18.43;100.00
44765;BME280;30484;52.382;5.260;2023-04-23T08:17:27;100624.50;;;18.83;100.00
44765;BME280;30484;52.382;5.260;2023-04-23T08:19:58;100627.00;;;19.05;100.00
44765;BME280;30484;52.382;5.260;2023-04-23T08:22:29;100619.44;;;18.99;100.00
44765;BME280;30484;52.382;5.260;2023-04-23T08:25:04;100623.25;;;18.35;100.00
44765;BME280;30484;52.382;5.260;2023-04-23T08:27:36;100614.44;;;19.55;100.00
44765;BME280;30484;52.382;5.260;2023-04-23T08:30:08;100613.63;;;19.93;100.00
44765;BME280;30484;52.382;5.260;2023-04-23T08:32:39;100602.47;;;19.77;100.00
44765;BME280;30484;52.382;5.260;2023-04-23T08:35:14;100604.72;;;19.42;100.00
44765;BME280;30484;52.382;5.260;2023-04-23T08:37:48;100612.00;;;19.52;100.00
44765;BME280;30484;52.382;5.260;2023-04-23T08:40:18;100621.25;;;19.20;100.00
44765;BME280;30484;52.382;5.260;2023-04-23T08:42:52;100617.13;;;19.45;100.00
44765;BME280;30484;52.382;5.260;2023-04-23T08:45:30;100599.28;;;20.21;100.00
44765;BME280;30484;52.382;5.260;2023-04-23T08:48:00;100611.81;;;20.41;100.00
44765;BME280;30484;52.382;5.260;2023-04-23T08:50:32;100601.53;;;20.35;100.00
44765;BME280;30484;52.382;5.260;2023-04-23T08:53:06;100598.38;;;19.12;100.00
44765;BME280;30484;52.382;5.260;2023-04-23T08:55:35;100600.06;;;19.93;100.00
44765;BME280;30484;52.382;5.260;2023-04-23T08:58:15;100601.16;;;20.30;100.00
44765;BME280;30484;52.382;5.260;2023-04-23T09:00:47;100596.34;;;20.04;100.00
44765;BME280;30484;52.382;5.260;2023-04-23T09:03:18;100594.94;;;20.47;100.00
44765;BME280;30484;52.382;5.260;2023-04-23T09:05:51;100600.06;;;20.50;100.00
44765;BME280;30484;52.382;5.260;2023-04-23T09:08:27;100598.00;;;21.10;100.00
44765;BME280;30484;52.382;5.260;2023-04-23T09:11:02;100599.34;;;20.96;100.00
44765;BME280;30484;52.382;5.260;2023-04-23T09:13:39;100597.16;;;21.27;100.00
44765;BME280;30484;52.382;5.260;2023-04-23T09:16:11;100586.13;;;20.45;100.00
44765;BME280;30484;52.382;5.260;2023-04-23T09:18:47;100593.66;;;20.89;100.00
44765;BME280;30484;52.382;5.260;2023-04-23T09:21:38;100593.16;;;20.76;100.00
44765;BME280;30484;52.382;5.260;2023-04-23T09:24:11;100597.47;;;20.96;100.00
44765;BME280;30484;52.382;5.260;2023-04-23T09:26:50;100593.47;;;21.46;100.00
44765;BME280;30484;52.382;5.260;2023-04-23T09:29:32;100586.09;;;20.55;100.00
44765;BME280;30484;52.382;5.260;2023-04-23T09:32:07;100588.06;;;21.18;100.00
44765;BME280;30484;52.382;5.260;2023-04-23T09:34:38;100584.28;;;21.29;100.00
44765;BME280;30484;52.382;5.260;2023-04-23T09:37:13;100581.22;;;21.14;100.00
44765;BME280;30484;52.382;5.260;2023-04-23T09:39:48;100586.50;;;21.62;100.00
44765;BME280;30484;52.382;5.260;2023-04-23T09:42:23;100580.59;;;21.20;100.00
44765;BME280;30484;52.382;5.260;2023-04-23T09:45:03;100573.19;;;21.41;100.00
44765;BME280;30484;52.382;5.260;2023-04-23T09:47:39;100576.59;;;21.97;100.00
44765;BME280;30484;52.382;5.260;2023-04-23T09:50:11;100568.22;;;20.90;100.00
44765;BME280;30484;52.382;5.260;2023-04-23T09:52:54;100568.22;;;21.36;100.00
44765;BME280;30484;52.382;5.260;2023-04-23T09:55:30;100569.16;;;21.27;100.00
44765;BME280;30484;52.382;5.260;2023-04-23T09:58:11;100575.44;;;22.26;100.00
44765;BME280;30484;52.382;5.260;2023-04-23T10:00:43;100565.97;;;21.49;100.00
44765;BME280;30484;52.382;5.260;2023-04-23T10:03:26;100570.78;;;21.37;100.00
44765;BME280;30484;52.382;5.260;2023-04-23T10:05:59;100578.16;;;21.45;100.00
44765;BME280;30484;52.382;5.260;2023-04-23T10:08:33;100570.25;;;21.70;100.00
44765;BME280;30484;52.382;5.260;2023-04-23T10:11:11;100569.34;;;21.79;100.00
44765;BME280;30484;52.382;5.260;2023-04-23T10:13:47;100571.91;;;21.81;100.00
44765;BME280;30484;52.382;5.260;2023-04-23T10:16:24;100578.22;;;22.08;100.00
44765;BME280;30484;52.382;5.260;2023-04-23T10:19:12;100586.22;;;21.37;100.00
44765;BME280;30484;52.382;5.260;2023-04-23T10:21:46;100574.88;;;21.96;100.00
44765;BME280;30484;52.382;5.260;2023-04-23T10:24:26;100562.72;;;21.46;100.00
44765;BME280;30484;52.382;5.260;2023-04-23T10:27:05;100557.94;;;22.54;100.00
44765;BME280;30484;52.382;5.260;2023-04-23T10:29:53;100560.91;;;22.69;100.00
44765;BME280;30484;52.382;5.260;2023-04-23T10:32:25;100574.97;;;22.56;100.00
44765;BME280;30484;52.382;5.260;2023-04-23T10:35:00;100560.78;;;21.74;100.00
44765;BME280;30484;52.382;5.260;2023-04-23T10:37:33;100551.94;;;22.24;100.00
44765;BME280;30484;52.382;5.260;2023-04-23T10:40:09;100561.66;;;22.27;100.00
44765;BME280;30484;52.382;5.260;2023-04-23T10:42:44;100541.81;;;22.09;100.00
44765;BME280;30484;52.382;5.260;2023-04-23T10:45:17;100546.53;;;21.98;100.00
44765;BME280;30484;52.382;5.260;2023-04-23T10:47:53;100542.06;;;22.15;100.00
44765;BME280;30484;52.382;5.260;2023-04-23T10:50:26;100532.44;;;22.55;100.00
44765;BME280;30484;52.382;5.260;2023-04-23T10:52:56;100536.03;;;22.64;100.00
44765;BME280;30484;52.382;5.260;2023-04-23T10:55:30;100536.91;;;22.65;100.00
44765;BME280;30484;52.382;5.260;2023-04-23T10:58:08;100528.63;;;23.50;100.00
44765;BME280;30484;52.382;5.260;2023-04-23T11:00:45;100522.34;;;22.99;100.00
44765;BME280;30484;52.382;5.260;2023-04-23T11:03:40;100529.44;;;22.14;100.00
44765;BME280;30484;52.382;5.260;2023-04-23T11:06:19;100515.50;;;22.09;100.00
44765;BME280;30484;52.382;5.260;2023-04-23T11:09:38;100536.69;;;22.32;100.00
44765;BME280;30484;52.382;5.260;2023-04-23T11:12:10;100526.34;;;21.83;100.00
44765;BME280;30484;52.382;5.260;2023-04-23T11:14:47;100535.44;;;22.44;100.00
44765;BME280;30484;52.382;5.260;2023-04-23T11:17:21;100507.00;;;21.86;100.00
44765;BME280;30484;52.382;5.260;2023-04-23T11:20:11;100518.03;;;22.63;100.00
44765;BME280;30484;52.382;5.260;2023-04-23T11:22:46;100508.28;;;22.26;100.00
44765;BME280;30484;52.382;5.260;2023-04-23T11:25:19;100499.91;;;23.05;100.00
44765;BME280;30484;52.382;5.260;2023-04-23T11:27:51;100507.59;;;22.50;100.00
44765;BME280;30484;52.382;5.260;2023-04-23T11:30:24;100488.31;;;23.03;100.00
44765;BME280;30484;52.382;5.260;2023-04-23T11:32:56;100489.06;;;23.21;100.00
44765;BME280;30484;52.382;5.260;2023-04-23T11:35:29;100483.47;;;23.48;100.00
44765;BME280;30484;52.382;5.260;2023-04-23T11:38:10;100478.53;;;24.40;100.00
44765;BME280;30484;52.382;5.260;2023-04-23T11:40:46;100473.38;;;23.98;100.00
44765;BME280;30484;52.382;5.260;2023-04-23T11:43:18;100472.28;;;24.23;100.00
44765;BME280;30484;52.382;5.260;2023-04-23T11:45:49;100470.63;;;23.07;100.00
44765;BME280;30484;52.382;5.260;2023-04-23T11:48:19;100462.06;;;24.57;100.00
44765;BME280;30484;52.382;5.260;2023-04-23T11:50:52;100459.13;;;24.27;100.00
44765;BME280;30484;52.382;5.260;2023-04-23T11:53:29;100458.97;;;24.68;100.00
44765;BME280;30484;52.382;5.260;2023-04-23T11:55:59;100456.50;;;24.42;100.00
44765;BME280;30484;52.382;5.260;2023-04-23T11:58:29;100460.28;;;23.93;100.00
44765;BME280;30484;52.382;5.260;2023-04-23T12:01:05;100444.06;;;23.58;100.00
44765;BME280;30484;52.382;5.260;2023-04-23T12:03:37;100442.34;;;24.78;100.00
44765;BME280;30484;52.382;5.260;2023-04-23T12:06:08;100430.38;;;25.25;100.00
44765;BME280;30484;52.382;5.260;2023-04-23T12:08:40;100441.28;;;24.87;100.00
44765;BME280;30484;52.382;5.260;2023-04-23T12:11:11;100426.84;;;23.91;100.00
44765;BME280;30484;52.382;5.260;2023-04-23T12:13:41;100415.06;;;23.99;100.00
44765;BME280;30484;52.382;5.260;2023-04-23T12:16:14;100417.69;;;24.23;100.00
44765;BME280;30484;52.382;5.260;2023-04-23T12:18:44;100417.66;;;23.67;100.00
44765;BME280;30484;52.382;5.260;2023-04-23T12:21:15;100424.69;;;23.12;100.00
44765;BME280;30484;52.382;5.260;2023-04-23T12:23:57;100410.69;;;23.48;100.00
44765;BME280;30484;52.382;5.260;2023-04-23T12:26:28;100415.38;;;24.04;100.00
44765;BME280;30484;52.382;5.260;2023-04-23T12:28:59;100414.47;;;23.39;100.00
44765;BME280;30484;52.382;5.260;2023-04-23T12:31:37;100404.59;;;24.10;100.00
44765;BME280;30484;52.382;5.260;2023-04-23T12:34:13;100417.03;;;24.53;100.00
44765;BME280;30484;52.382;5.260;2023-04-23T12:36:47;100391.72;;;24.90;100.00
44765;BME280;30484;52.382;5.260;2023-04-23T12:39:28;100400.88;;;24.03;100.00
44765;BME280;30484;52.382;5.260;2023-04-23T12:42:01;100383.44;;;24.44;100.00
44765;BME280;30484;52.382;5.260;2023-04-23T12:44:33;100387.25;;;24.35;100.00
44765;BME280;30484;52.382;5.260;2023-04-23T12:47:04;100385.56;;;24.65;100.00
44765;BME280;30484;52.382;5.260;2023-04-23T12:49:37;100388.06;;;24.12;100.00
44765;BME280;30484;52.382;5.260;2023-04-23T12:52:08;100379.03;;;23.14;100.00
44765;BME280;30484;52.382;5.260;2023-04-23T12:54:41;100376.84;;;23.26;100.00
44765;BME280;30484;52.382;5.260;2023-04-23T12:57:12;100378.34;;;22.87;100.00
44765;BME280;30484;52.382;5.260;2023-04-23T12:59:42;100365.97;;;23.90;100.00
44765;BME280;30484;52.382;5.260;2023-04-23T13:02:13;100390.25;;;24.17;100.00
44765;BME280;30484;52.382;5.260;2023-04-23T13:04:43;100368.78;;;23.57;100.00
44765;BME280;30484;52.382;5.260;2023-04-23T13:07:12;100366.63;;;23.92;100.00
44765;BME280;30484;52.382;5.260;2023-04-23T13:09:45;100359.84;;;24.51;100.00
44765;BME280;30484;52.382;5.260;2023-04-23T13:12:16;100363.56;;;23.95;100.00